createdAt,value
2022-10-13T00:01:10.856Z,75.90
2022-10-13T00:03:42.301Z,75.93
2022-10-13T00:06:11.008Z,75.35
2022-10-13T00:08:38.928Z,76.05
2022-10-13T00:11:22.001Z,75.98
2022-10-13T00:13:50.040Z,75.48
2022-10-13T00:16:20.654Z,76.05
2022-10-13T00:18:48.469Z,75.63
2022-10-13T00:21:21.333Z,75.83
2022-10-13T00:23:50.024Z,76.04
2022-10-13T00:26:17.735Z,75.84
2022-10-13T00:28:47.358Z,75.56
2022-10-13T00:31:23.277Z,75.72
2022-10-13T00:33:50.349Z,75.90
2022-10-13T00:36:17.183Z,75.66
2022-10-13T00:38:43.999Z,76.06
2022-10-13T00:41:11.106Z,76.10
2022-10-13T00:44:01.076Z,75.19
2022-10-13T00:46:31.499Z,75.52
2022-10-13T00:49:08.399Z,75.66
2022-10-13T00:51:41.469Z,75.74
2022-10-13T00:54:11.827Z,76.00
2022-10-13T00:56:39.999Z,76.51
2022-10-13T00:59:23.044Z,76.37
2022-10-13T01:01:51.801Z,76.81
2022-10-13T01:04:22.989Z,76.46
2022-10-13T01:06:50.204Z,76.81
2022-10-13T01:09:16.992Z,77.72
2022-10-13T01:12:04.758Z,77.65
2022-10-13T01:14:52.842Z,77.50
2022-10-13T01:18:09.207Z,77.88
2022-10-13T01:20:48.384Z,77.96
2022-10-13T01:23:54.956Z,77.35
2022-10-13T01:26:49.527Z,77.24
2022-10-13T01:29:47.360Z,77.01
2022-10-13T01:32:38.605Z,77.07
2022-10-13T01:35:50.155Z,77.08
2022-10-13T01:38:40.118Z,77.46
2022-10-13T01:41:11.847Z,77.29
2022-10-13T01:43:47.193Z,77.07
2022-10-13T01:46:23.030Z,76.90
2022-10-13T01:48:54.208Z,77.34
2022-10-13T01:51:23.876Z,77.74
2022-10-13T01:53:51.445Z,77.79
2022-10-13T01:56:18.771Z,77.77
2022-10-13T01:58:46.596Z,77.93
2022-10-13T02:01:47.204Z,77.64
2022-10-13T02:04:31.992Z,77.48
2022-10-13T02:07:15.176Z,77.54
2022-10-13T02:09:57.710Z,77.64
2022-10-13T02:12:49.849Z,77.51
2022-10-13T02:15:22.658Z,77.27
2022-10-13T02:17:51.841Z,77.43
2022-10-13T02:20:20.918Z,77.58
2022-10-13T02:22:55.808Z,77.60
2022-10-13T02:25:23.012Z,77.63
2022-10-13T02:27:49.962Z,77.85
2022-10-13T02:30:23.971Z,77.78
2022-10-13T02:32:51.179Z,77.24
2022-10-13T02:35:18.038Z,77.33
2022-10-13T02:37:44.947Z,77.66
2022-10-13T02:40:12.463Z,77.79
2022-10-13T02:42:39.368Z,77.95
2022-10-13T02:45:07.463Z,77.75
2022-10-13T02:47:34.333Z,77.59
2022-10-13T02:50:01.301Z,77.74
2022-10-13T02:52:28.256Z,77.74
2022-10-13T02:54:55.032Z,77.54
2022-10-13T02:57:22.511Z,77.04
2022-10-13T02:59:49.581Z,77.39
2022-10-13T03:02:17.757Z,78.09
2022-10-13T03:04:45.337Z,78.04
2022-10-13T03:07:12.217Z,77.39
2022-10-13T03:09:39.025Z,77.71
2022-10-13T03:12:06.173Z,77.80
2022-10-13T03:14:32.946Z,78.15
2022-10-13T03:17:00.902Z,77.58
2022-10-13T03:19:27.732Z,77.53
2022-10-13T03:21:54.886Z,77.70
2022-10-13T03:24:21.714Z,78.50
2022-10-13T03:26:48.502Z,79.07
2022-10-13T03:29:16.882Z,79.01
2022-10-13T03:31:44.305Z,79.46
2022-10-13T03:34:12.804Z,79.07
2022-10-13T03:36:39.838Z,78.97
2022-10-13T03:39:06.737Z,79.47
2022-10-13T03:41:33.809Z,79.39
2022-10-13T03:44:00.994Z,79.30
2022-10-13T03:46:29.886Z,79.25
2022-10-13T03:48:56.693Z,79.16
2022-10-13T03:51:24.684Z,79.18
2022-10-13T03:53:52.862Z,79.49
2022-10-13T03:56:26.116Z,79.19
2022-10-13T03:58:58.719Z,79.20
2022-10-13T04:01:29.366Z,79.31
2022-10-13T04:03:57.412Z,78.62
2022-10-13T04:06:26.416Z,78.71
2022-10-13T04:08:53.609Z,78.23
2022-10-13T04:11:22.013Z,78.18
2022-10-13T04:13:48.831Z,78.41
2022-10-13T04:16:19.483Z,79.04
2022-10-13T04:18:54.672Z,78.30
2022-10-13T04:21:22.349Z,78.94
2022-10-13T04:23:49.339Z,78.88
2022-10-13T04:26:20.329Z,78.84
2022-10-13T04:28:49.231Z,79.34
2022-10-13T04:31:16.517Z,79.09
2022-10-13T04:33:45.095Z,79.68
2022-10-13T04:36:14.301Z,79.51
2022-10-13T04:38:42.593Z,79.78
2022-10-13T04:41:10.889Z,80.11
2022-10-13T04:43:38.128Z,79.91
2022-10-13T04:46:18.872Z,79.88
2022-10-13T04:48:47.229Z,79.83
2022-10-13T04:51:17.779Z,79.72
2022-10-13T04:53:44.653Z,79.52
2022-10-13T04:56:20.553Z,79.50
2022-10-13T04:58:47.431Z,79.34
2022-10-13T05:01:22.540Z,79.21
2022-10-13T05:04:00.052Z,79.45
2022-10-13T05:06:34.428Z,79.82
2022-10-13T05:09:01.733Z,79.88
2022-10-13T05:11:29.600Z,79.45
2022-10-13T05:13:57.357Z,79.55
2022-10-13T05:16:25.347Z,79.53
2022-10-13T05:18:54.605Z,79.09
2022-10-13T05:21:28.243Z,78.84
2022-10-13T05:23:56.894Z,79.47
2022-10-13T05:26:32.052Z,78.86
2022-10-13T05:29:00.541Z,78.92
2022-10-13T05:31:29.895Z,79.13
2022-10-13T05:33:57.329Z,79.47
2022-10-13T05:36:30.852Z,79.84
2022-10-13T05:39:01.198Z,79.62
2022-10-13T05:41:29.245Z,79.38
2022-10-13T05:44:03.208Z,79.58
2022-10-13T05:46:29.987Z,79.37
2022-10-13T05:48:56.825Z,79.57
2022-10-13T05:51:30.585Z,79.66
2022-10-13T05:54:12.342Z,79.71
2022-10-13T05:56:47.860Z,79.10
2022-10-13T05:59:18.296Z,79.57
2022-10-13T06:01:46.181Z,79.40
2022-10-13T06:04:22.376Z,79.04
2022-10-13T06:06:49.876Z,78.99
2022-10-13T06:09:17.488Z,78.49
2022-10-13T06:11:44.327Z,78.05
2022-10-13T06:14:11.092Z,78.56
2022-10-13T06:16:37.939Z,78.45
2022-10-13T06:19:06.089Z,79.00
2022-10-13T06:21:35.470Z,79.22
2022-10-13T06:24:02.806Z,78.60
2022-10-13T06:26:29.638Z,79.03
2022-10-13T06:28:59.493Z,79.30
2022-10-13T06:31:27.190Z,79.30
2022-10-13T06:33:54.119Z,78.43
2022-10-13T06:36:20.945Z,78.41
2022-10-13T06:38:47.753Z,78.40
2022-10-13T06:41:14.821Z,78.84
2022-10-13T06:43:42.062Z,78.99
2022-10-13T06:46:09.839Z,79.02
2022-10-13T06:48:36.745Z,78.52
2022-10-13T06:51:06.584Z,78.97
2022-10-13T06:53:33.836Z,78.93
2022-10-13T06:56:02.271Z,78.74
2022-10-13T06:58:29.096Z,78.79
2022-10-13T07:00:56.168Z,78.49
2022-10-13T07:03:24.032Z,77.92
2022-10-13T07:05:50.893Z,78.40
2022-10-13T07:08:17.712Z,78.11
2022-10-13T07:10:44.475Z,78.26
2022-10-13T07:13:11.450Z,78.16
2022-10-13T07:15:40.085Z,79.18
2022-10-13T07:18:07.459Z,79.31
2022-10-13T07:20:34.707Z,78.16
2022-10-13T07:23:01.840Z,78.00
2022-10-13T07:25:28.745Z,77.31
2022-10-13T07:27:55.561Z,76.83
2022-10-13T07:30:22.739Z,77.20
2022-10-13T07:32:49.572Z,77.94
2022-10-13T07:35:16.513Z,77.68
2022-10-13T07:37:43.292Z,76.82
2022-10-13T07:40:10.896Z,76.08
2022-10-13T07:42:37.677Z,76.24
2022-10-13T07:45:05.171Z,76.20
2022-10-13T07:47:31.985Z,75.38
2022-10-13T07:49:58.768Z,76.02
2022-10-13T07:52:25.576Z,76.75
2022-10-13T07:54:52.374Z,75.73
2022-10-13T07:57:19.149Z,76.76
2022-10-13T07:59:46.129Z,75.40
2022-10-13T08:02:13.029Z,75.89
2022-10-13T08:04:39.872Z,75.59
2022-10-13T08:07:07.043Z,75.13
2022-10-13T08:09:34.181Z,75.68
2022-10-13T08:12:02.035Z,75.65
2022-10-13T08:14:30.403Z,75.23
2022-10-13T08:16:57.961Z,74.47
2022-10-13T08:19:26.579Z,74.28
2022-10-13T08:21:58.818Z,73.78
2022-10-13T08:24:27.461Z,73.64
2022-10-13T08:26:55.312Z,74.17
2022-10-13T08:29:23.386Z,74.49
2022-10-13T08:31:52.841Z,73.55
2022-10-13T08:34:21.457Z,73.76
2022-10-13T08:36:48.803Z,73.32
2022-10-13T08:39:15.770Z,73.90
2022-10-13T08:41:44.528Z,72.99
2022-10-13T08:45:10.818Z,73.18
2022-10-13T08:47:43.792Z,72.63
2022-10-13T08:50:16.048Z,73.56
2022-10-13T08:53:07.453Z,72.94
2022-10-13T08:55:42.126Z,73.53
2022-10-13T08:58:31.438Z,73.19
2022-10-13T09:01:19.782Z,73.02
2022-10-13T09:04:18.749Z,71.67
2022-10-13T09:07:03.456Z,70.97
2022-10-13T09:09:30.573Z,70.73
2022-10-13T09:11:59.422Z,69.68
2022-10-13T09:14:34.563Z,70.02
2022-10-13T09:17:30.400Z,69.49
2022-10-13T09:20:03.822Z,68.38
2022-10-13T09:22:39.510Z,69.80
2022-10-13T09:25:18.552Z,70.51
2022-10-13T09:27:48.034Z,70.35
2022-10-13T09:30:38.808Z,69.31
2022-10-13T09:33:08.928Z,68.57
2022-10-13T09:35:37.757Z,69.03
2022-10-13T09:38:14.740Z,68.72
2022-10-13T09:43:28.128Z,69.07
2022-10-13T09:45:55.561Z,69.24
2022-10-13T09:48:27.981Z,68.93
2022-10-13T09:50:57.293Z,68.80
2022-10-13T09:53:35.321Z,67.29
2022-10-13T09:56:19.579Z,67.82
2022-10-13T09:59:01.178Z,67.91
2022-10-13T10:01:35.405Z,67.56
2022-10-13T10:04:07.525Z,68.37
2022-10-13T10:06:34.886Z,68.74
2022-10-13T10:09:22.649Z,66.56
2022-10-13T10:11:53.376Z,66.92
2022-10-13T10:14:39.281Z,66.59
2022-10-13T10:17:32.568Z,66.70
2022-10-13T10:20:44.993Z,65.93
2022-10-13T10:23:22.966Z,66.98
2022-10-13T10:25:59.243Z,66.54
2022-10-13T10:28:50.566Z,65.50
2022-10-13T10:31:42.412Z,64.73
2022-10-13T10:34:52.874Z,65.83
2022-10-13T10:37:33.115Z,65.26
2022-10-13T10:40:19.006Z,65.05
2022-10-13T10:43:06.784Z,64.56
2022-10-13T10:45:40.580Z,63.45
2022-10-13T10:48:18.781Z,62.67
2022-10-13T10:50:46.649Z,61.75
2022-10-13T10:53:57.475Z,61.44
2022-10-13T10:56:49.078Z,60.83
2022-10-13T10:59:49.973Z,60.23
2022-10-13T11:02:54.899Z,61.42
2022-10-13T11:05:22.088Z,60.31
2022-10-13T11:07:51.449Z,56.12
2022-10-13T11:10:21.716Z,56.95
2022-10-13T11:12:51.254Z,57.80
2022-10-13T11:15:28.800Z,56.63
2022-10-13T11:17:55.661Z,56.99
2022-10-13T11:20:22.373Z,57.57
2022-10-13T11:23:00.695Z,53.19
2022-10-13T11:25:48.806Z,51.26
2022-10-13T11:28:21.927Z,50.91
2022-10-13T11:31:05.498Z,51.28
2022-10-13T11:33:38.993Z,51.56
2022-10-13T11:36:55.583Z,51.13
2022-10-13T11:39:51.889Z,51.03
2022-10-13T11:42:59.253Z,52.11
2022-10-13T11:45:49.045Z,53.10
2022-10-13T11:48:30.375Z,54.11
2022-10-13T11:51:30.356Z,55.88
2022-10-13T11:54:05.916Z,54.57
2022-10-13T11:56:53.265Z,53.65
2022-10-13T11:59:35.137Z,53.92
2022-10-13T12:02:10.811Z,53.59
2022-10-13T12:04:46.285Z,52.82
2022-10-13T12:07:16.026Z,51.59
2022-10-13T12:09:54.164Z,51.44
2022-10-13T12:12:23.085Z,50.51
2022-10-13T12:14:58.720Z,49.00
2022-10-13T12:17:33.253Z,48.15
2022-10-13T12:20:21.959Z,46.55
2022-10-13T12:22:50.397Z,47.53
2022-10-13T12:25:20.522Z,50.15
2022-10-13T12:27:51.021Z,49.73
2022-10-13T12:30:24.644Z,50.57
2022-10-13T12:32:57.513Z,51.34
2022-10-13T12:35:33.627Z,52.08
2022-10-13T12:38:23.441Z,52.88
2022-10-13T12:40:53.447Z,52.26
2022-10-13T12:43:27.520Z,52.52
2022-10-13T12:45:54.579Z,52.23
2022-10-13T12:48:36.897Z,51.80
2022-10-13T12:51:34.738Z,50.78
2022-10-13T12:54:20.483Z,52.29
2022-10-13T12:56:48.732Z,52.19
2022-10-13T12:59:19.572Z,51.68
2022-10-13T13:01:57.540Z,51.66
2022-10-13T13:04:24.213Z,51.14
2022-10-13T13:07:02.043Z,51.82
2022-10-13T13:09:38.733Z,53.58
2022-10-13T13:12:11.108Z,53.04
2022-10-13T13:14:43.538Z,53.15
2022-10-13T13:20:26.726Z,52.78
2022-10-13T13:22:54.690Z,52.14
2022-10-13T13:25:21.920Z,52.54
2022-10-13T13:27:49.126Z,53.66
2022-10-13T13:30:19.788Z,52.98
2022-10-13T13:32:46.915Z,52.07
2022-10-13T13:35:13.881Z,52.30
2022-10-13T13:37:45.376Z,51.98
2022-10-13T13:40:19.412Z,52.43
2022-10-13T13:42:46.393Z,51.98
2022-10-13T13:45:19.712Z,51.31
2022-10-13T13:47:47.334Z,50.81
2022-10-13T13:50:20.803Z,51.34
2022-10-13T13:52:48.066Z,50.87
2022-10-13T13:55:15.271Z,51.85
2022-10-13T13:57:43.456Z,51.85
2022-10-13T14:00:15.721Z,52.08
2022-10-13T14:02:44.201Z,52.44
2022-10-13T14:05:12.297Z,54.83
2022-10-13T14:07:40.267Z,54.42
2022-10-13T14:10:09.379Z,54.06
2022-10-13T14:12:36.344Z,54.83
2022-10-13T14:15:03.605Z,55.26
2022-10-13T14:17:30.403Z,57.16
2022-10-13T14:19:57.194Z,57.30
2022-10-13T14:22:24.246Z,57.33
2022-10-13T14:24:51.334Z,58.18
2022-10-13T14:27:18.120Z,57.81
2022-10-13T14:29:45.010Z,58.32
2022-10-13T14:32:12.091Z,58.33
2022-10-13T14:34:38.868Z,59.53
2022-10-13T14:37:05.679Z,59.69
2022-10-13T14:39:32.504Z,59.24
2022-10-13T14:41:59.286Z,59.27
2022-10-13T14:44:26.047Z,59.87
2022-10-13T14:46:52.857Z,58.77
2022-10-13T14:49:19.869Z,59.57
2022-10-13T14:51:46.704Z,60.60
2022-10-13T14:54:13.480Z,60.86
2022-10-13T14:56:40.361Z,61.43
2022-10-13T14:59:07.757Z,61.07
2022-10-13T15:01:34.811Z,61.14
2022-10-13T15:04:02.837Z,61.59
2022-10-13T15:06:29.818Z,60.82
2022-10-13T15:08:57.277Z,59.75
2022-10-13T15:11:25.600Z,61.90
2022-10-13T15:13:52.758Z,60.38
2022-10-13T15:16:28.665Z,60.24
2022-10-13T15:18:56.574Z,60.63
2022-10-13T15:21:24.240Z,61.84
2022-10-13T15:23:51.465Z,61.78
2022-10-13T15:26:19.819Z,61.05
2022-10-13T15:28:50.895Z,61.42
2022-10-13T15:31:19.996Z,62.57
2022-10-13T15:33:52.390Z,63.12
2022-10-13T15:36:21.064Z,64.13
2022-10-13T15:38:48.348Z,64.11
2022-10-13T15:41:16.110Z,64.69
2022-10-13T15:43:43.033Z,64.36
2022-10-13T15:46:21.591Z,65.50
2022-10-13T15:48:53.343Z,66.09
2022-10-13T15:51:23.970Z,66.41
2022-10-13T15:53:50.822Z,66.55
2022-10-13T15:56:17.637Z,66.58
2022-10-13T15:58:45.441Z,66.71
2022-10-13T16:01:13.705Z,67.25
2022-10-13T16:03:40.932Z,67.45
2022-10-13T16:06:10.515Z,67.53
2022-10-13T16:08:43.902Z,67.62
2022-10-13T16:11:13.526Z,67.87
2022-10-13T16:13:41.729Z,67.91
2022-10-13T16:16:08.692Z,68.26
2022-10-13T16:18:37.689Z,68.96
2022-10-13T16:21:18.755Z,68.90
2022-10-13T16:23:47.426Z,69.15
2022-10-13T16:26:17.587Z,69.14
2022-10-13T16:28:45.702Z,69.73
2022-10-13T16:31:16.057Z,69.95
2022-10-13T16:33:45.507Z,70.46
2022-10-13T16:36:18.527Z,70.88
2022-10-13T16:38:47.207Z,70.80
2022-10-13T16:41:17.125Z,70.96
2022-10-13T16:43:45.495Z,71.34
2022-10-13T16:46:15.364Z,71.25
2022-10-13T16:48:43.404Z,71.29
2022-10-13T16:51:23.841Z,71.32
2022-10-13T16:54:02.809Z,71.50
2022-10-13T16:56:31.067Z,71.46
2022-10-13T16:59:01.536Z,71.85
2022-10-13T17:01:30.005Z,72.20
2022-10-13T17:03:57.375Z,72.69
2022-10-13T17:06:27.113Z,72.78
2022-10-13T17:08:54.308Z,73.11
2022-10-13T17:11:25.326Z,73.21
2022-10-13T17:13:52.492Z,73.25
2022-10-13T17:16:20.187Z,73.47
2022-10-13T17:18:46.972Z,73.08
2022-10-13T17:21:16.694Z,73.36
2022-10-13T17:23:48.347Z,73.80
2022-10-13T17:26:18.230Z,73.78
2022-10-13T17:28:45.685Z,74.02
2022-10-13T17:31:17.857Z,74.24
2022-10-13T17:33:46.004Z,74.50
2022-10-13T17:36:19.417Z,74.33
2022-10-13T17:38:48.158Z,74.43
2022-10-13T17:41:15.507Z,74.73
2022-10-13T17:43:42.791Z,74.83
2022-10-13T17:46:34.423Z,74.80
2022-10-13T17:48:58.319Z,75.06
2022-10-13T17:51:25.347Z,75.22
2022-10-13T17:53:52.820Z,75.04
2022-10-13T17:56:25.019Z,75.06
2022-10-13T17:58:52.598Z,74.71
2022-10-13T18:01:29.626Z,74.75
2022-10-13T18:04:02.679Z,74.46
2022-10-13T18:06:45.741Z,74.71
2022-10-13T18:09:19.394Z,74.80
2022-10-13T18:11:50.766Z,74.82
2022-10-13T18:14:24.088Z,74.52
2022-10-13T18:16:51.715Z,74.91
2022-10-13T18:19:18.585Z,75.26
2022-10-13T18:21:45.417Z,75.27
2022-10-13T18:24:12.435Z,75.39
2022-10-13T18:26:39.400Z,75.60
2022-10-13T18:29:08.373Z,75.69
2022-10-13T18:31:38.462Z,75.85
2022-10-13T18:34:10.516Z,76.18
2022-10-13T18:36:43.445Z,76.22
2022-10-13T18:39:19.188Z,76.31
2022-10-13T18:41:46.965Z,75.99
2022-10-13T18:44:14.502Z,76.44
2022-10-13T18:46:41.726Z,76.17
2022-10-13T18:49:14.722Z,76.00
2022-10-13T18:51:42.094Z,76.11
2022-10-13T18:54:09.261Z,75.90
2022-10-13T18:56:36.930Z,76.11
2022-10-13T18:59:06.371Z,75.85
2022-10-13T19:01:35.340Z,76.33
2022-10-13T19:04:02.302Z,76.24
2022-10-13T19:06:31.943Z,76.10
2022-10-13T19:09:02.299Z,76.29
2022-10-13T19:11:30.279Z,76.56
2022-10-13T19:13:59.604Z,76.43
2022-10-13T19:16:30.103Z,76.47
2022-10-13T19:18:57.296Z,76.60
2022-10-13T19:21:25.117Z,76.57
2022-10-13T19:23:52.360Z,76.98
2022-10-13T19:26:28.266Z,77.42
2022-10-13T19:28:57.951Z,77.18
2022-10-13T19:31:28.217Z,77.78
2022-10-13T19:33:55.861Z,77.98
2022-10-13T19:36:34.924Z,77.90
2022-10-13T19:39:05.542Z,78.17
2022-10-13T19:41:33.023Z,78.43
2022-10-13T19:44:00.700Z,78.13
2022-10-13T19:46:27.604Z,78.05
2022-10-13T19:48:54.661Z,77.79
2022-10-13T19:51:21.443Z,78.03
2022-10-13T19:53:48.977Z,78.01
2022-10-13T19:56:31.860Z,77.75
2022-10-13T19:58:59.714Z,77.54
2022-10-13T20:01:27.029Z,77.69
2022-10-13T20:03:54.586Z,77.84
2022-10-13T20:06:22.692Z,78.19
2022-10-13T20:08:49.732Z,78.18
2022-10-13T20:11:23.696Z,78.52
2022-10-13T20:13:52.920Z,78.24
2022-10-13T20:16:23.281Z,78.09
2022-10-13T20:18:54.032Z,78.41
2022-10-13T20:21:22.576Z,78.37
2022-10-13T20:23:49.678Z,78.25
2022-10-13T20:26:17.373Z,78.50
2022-10-13T20:28:46.507Z,78.12
2022-10-13T20:31:15.511Z,77.40
2022-10-13T20:33:43.423Z,77.48
2022-10-13T20:36:16.742Z,77.74
2022-10-13T20:38:43.550Z,78.07
2022-10-13T20:41:19.679Z,77.96
2022-10-13T20:43:48.382Z,78.00
2022-10-13T20:46:17.211Z,77.63
2022-10-13T20:49:09.473Z,77.91
2022-10-13T20:51:31.597Z,77.87
2022-10-13T20:53:58.440Z,77.72
2022-10-13T20:56:26.478Z,77.98
2022-10-13T20:58:54.207Z,78.11
2022-10-13T21:01:22.941Z,78.06
2022-10-13T21:03:54.309Z,78.41
2022-10-13T21:06:23.442Z,78.52
2022-10-13T21:08:50.636Z,78.23
2022-10-13T21:11:20.259Z,78.22
2022-10-13T21:13:48.091Z,78.27
2022-10-13T21:16:19.405Z,78.36
2022-10-13T21:18:51.013Z,78.35
2022-10-13T21:21:22.080Z,78.08
2022-10-13T21:23:58.168Z,78.12
2022-10-13T21:26:27.962Z,78.47
2022-10-13T21:28:55.143Z,78.60
2022-10-13T21:31:23.734Z,78.00
2022-10-13T21:33:50.947Z,78.36
2022-10-13T21:36:30.007Z,78.11
2022-10-13T21:39:05.066Z,78.37
2022-10-13T21:41:32.105Z,78.12
2022-10-13T21:43:59.213Z,77.75
2022-10-13T21:46:30.098Z,77.72
2022-10-13T21:49:00.239Z,78.36
2022-10-13T21:51:29.981Z,78.18
2022-10-13T21:54:01.993Z,77.71
2022-10-13T21:56:30.268Z,77.79
2022-10-13T21:58:57.142Z,77.88
2022-10-13T22:01:24.810Z,78.28
2022-10-13T22:03:57.869Z,78.51
2022-10-13T22:06:25.527Z,78.55
2022-10-13T22:08:55.617Z,78.99
2022-10-13T22:11:26.363Z,79.02
2022-10-13T22:13:53.496Z,79.10
2022-10-13T22:16:24.429Z,78.51
2022-10-13T22:18:56.425Z,78.64
2022-10-13T22:21:30.216Z,78.66
2022-10-13T22:24:00.435Z,78.15
2022-10-13T22:26:30.451Z,77.58
2022-10-13T22:28:59.636Z,78.34
2022-10-13T22:31:26.984Z,78.44
2022-10-13T22:33:54.907Z,78.19
2022-10-13T22:36:24.284Z,78.26
2022-10-13T22:38:55.008Z,78.17
2022-10-13T22:41:21.915Z,78.24
2022-10-13T22:43:54.795Z,78.98
2022-10-13T22:46:28.208Z,79.06
2022-10-13T22:48:56.654Z,79.17
2022-10-13T22:51:25.638Z,79.29
2022-10-13T22:53:52.501Z,79.86
2022-10-13T22:56:23.494Z,80.46
2022-10-13T22:58:52.742Z,81.29
2022-10-13T23:01:21.173Z,80.84
2022-10-13T23:03:50.456Z,80.85
2022-10-13T23:06:21.102Z,81.03
2022-10-13T23:08:48.594Z,81.21
2022-10-13T23:11:16.997Z,81.23
2022-10-13T23:13:44.016Z,81.84
2022-10-13T23:16:16.191Z,82.69
2022-10-13T23:18:43.444Z,81.89
2022-10-13T23:21:14.467Z,83.05
2022-10-13T23:23:41.349Z,82.28
2022-10-13T23:26:15.250Z,81.93
2022-10-13T23:28:42.722Z,81.82
2022-10-13T23:31:15.448Z,82.07
2022-10-13T23:33:42.701Z,81.65
2022-10-13T23:36:16.410Z,81.94
2022-10-13T23:38:43.207Z,82.51
2022-10-13T23:41:13.702Z,82.48
2022-10-13T23:43:41.233Z,81.42
2022-10-13T23:46:10.512Z,81.30
2022-10-13T23:48:38.339Z,81.34
2022-10-13T23:51:15.533Z,80.96
2022-10-13T23:53:42.982Z,81.84
2022-10-13T23:56:11.268Z,80.95
2022-10-13T23:58:40.807Z,81.00
